Forside
METAR-TAF:

METAR-TAF

Lufthavne :

Kansas City, Missouri, USA

Breddekreds: 39-17-50N, længdekreds: 094-43-50W, højde: 312 m

Aktuelle vejr

Denne rapport blev lavet for 59 minutter siden, kl. 02:53 UTC
Vind 6 kt fra nordøst
Temperatur 25°C
Fugtighed 54%
Tryk 1015 hPa
Sigt: 16.1 km
skyfri

METAR: KMCI 230253Z 05006KT 10SM CLR 25/15 A2998 RMK AO2 SLP143 T02500150 53012

Tid: 22:52 (03:52 UTC)

Vejrudsigter

Denne rapport blev lavet for 4 timer og 32 minutter siden, kl. 23:20 UTC
Foreløbig gælder fra 23 på 00 UTC til 23 på 24 UTC
Vind 8 kt fra nord
Sigt: 10 km
Nogle få skyer i en højde af 25000 ft
Fra 23 på 0300 UTC
Vind 3 kt fra varierende retninger
Sigt: 10 km
skyfri
Fra 23 på 1700 UTC
Vind 8 kt fra nord
Sigt: 10 km
Spredte skyer i en højde af 15000 ft

TAF: KMCI 222320Z 2300/2324 36008KT P6SM FEW250 FM230300 VRB03KT P6SM SKC FM231700 36008KT P6SM SCT150

Vejrobservationer og prognoser fra mere end 4000 lufthavne (METAR og TAF).

De gule og røde prikker repræsenterer de meteorologiske stationer.

Flyt musen over at se navnet på stationen.

Så klik over at se vejr observationer og prognoser.

At skifte det kort: Klik på de grønne knapper med et sort kors for at zoome ind; på den grønne knap med en bindestreg for at zoome ud; eller på de grønne pile for tilstødende kort.


METAR-TAF: